• Join FlightAware (Why Join?)
  • Login
  • US Flag 
03:19AM EST


 

Airport Tracker/Info


-or-


 

Live Flight TrackerFlight Track Log ✈ SKW6345 ✈ 05-05-2013 ✈ KCOD - KDEN

Flight Track Log - Related Links

Times and Time Zones

All times are in EDT time to prevent confusion due to time zone crossing. See the SKW6345 flight status page for this flight to view local times or setup timezone preferences in your user account.

Time Position Orientation Groundspeed Altitude Reporting Facility
EDT Latitude Longitude Course Direction KTS MPH feet Rate Location/Type
09:32AM 44.5369 -109.0017 159° South 165 190 6,100  Level Salt Lake Center
09:33AM 44.5333 -108.9339 94° East 198 228 7,900 2,340 Climbing Salt Lake Center
09:34AM 44.5168 -108.9046 159° South  Level FlightAware Approximate
09:34AM 44.4647 -108.8786 150° Southeast 245 282 10,900  Level Salt Lake Center
09:35AM 44.4158 -108.8494 154° Southeast  Level FlightAware Approximate
09:35AM 44.3956 -108.8389 158° South 264 304 13,400  Level Salt Lake Center
09:36AM 44.3179 -108.7842 154° Southeast  Level FlightAware Approximate
09:36AM 44.3211 -108.7928 156° South 291 335 15,100  Level Salt Lake Center
09:37AM 44.2189 -108.7227 158° South  Level FlightAware Approximate
09:37AM 44.2258 -108.7372 157° South 322 371 17,600  Level Salt Lake Center
09:38AM 44.1184 -108.6660 159° South  Level FlightAware Approximate
09:38AM 44.1422 -108.6903 158° South 334 384 19,200  Level Salt Lake Center
09:39AM 44.0550 -108.6400 157° South 347 399 20,400 1,260 Climbing Salt Lake Center
09:40AM 43.9458 -108.5758 157° South 377 434 21,800 1,020 Climbing Salt Lake Center
09:41AM 43.8547 -108.5047 151° Southeast 396 456 22,500 720 Climbing Salt Lake Center
09:42AM 43.7464 -108.3983 145° Southeast 426 490 23,300 720 Climbing Salt Lake Center
09:43AM 43.6506 -108.3069 145° Southeast 438 504 24,000 720 Climbing Salt Lake Center
09:45AM 43.5542 -108.2114 144° Southeast 445 512 24,800 840 Climbing Salt Lake Center
09:46AM 43.4400 -108.0992 144° Southeast 451 519 25,700 780 Climbing Salt Lake Center
09:47AM 43.3417 -108.0033 145° Southeast 454 522 26,400 720 Climbing Salt Lake Center
09:48AM 43.2428 -107.9075 145° Southeast 453 521 27,200 780 Climbing Salt Lake Center
09:49AM 43.1275 -107.7961 145° Southeast 455 524 28,100 780 Climbing Salt Lake Center
09:50AM 43.0300 -107.7031 145° Southeast 448 516 28,800 600 Climbing Salt Lake Center
09:51AM 42.9247 -107.6022 145° Southeast 451 519 29,400 540 Climbing Salt Lake Center
09:51AM 42.8756 -107.5539 144° Southeast 452 520 29,600 480 Climbing Denver Center
09:52AM 42.8256 -107.5069 145° Southeast 454 522 29,900 480 Climbing Salt Lake Center
09:53AM 42.7086 -107.3972 145° Southeast 457 526 30,400 480 Climbing Salt Lake Center
09:54AM 42.6094 -107.3019 145° Southeast 456 525 30,900 360 Climbing Salt Lake Center
09:54AM 42.5614 -107.2531 143° Southeast 454 522 31,000 60 Climbing Denver Center
09:55AM 42.4639 -107.1536 143° Southeast 457 526 31,000  Level Denver Center
09:56AM 42.3628 -107.0533 144° Southeast 469 540 31,000  Level Denver Center
09:57AM 42.2475 -106.9358 143° Southeast 465 535 31,000  Level Denver Center
09:58AM 42.1486 -106.8378 144° Southeast 463 533 31,000  Level Denver Center
09:59AM 42.0325 -106.7239 144° Southeast 464 534 31,000  Level Denver Center
10:00AM 41.9344 -106.6256 143° Southeast 460 529 31,000  Level Denver Center
10:01AM 41.8369 -106.5308 144° Southeast 454 522 31,000  Level Denver Center
10:02AM 41.7233 -106.4186 144° Southeast 454 522 31,000  Level Denver Center
10:03AM 41.6258 -106.3225 144° Southeast 455 524 31,000  Level Denver Center
10:04AM 41.5283 -106.2289 144° Southeast 453 521 31,000  Level Denver Center
10:05AM 41.4111 -106.1144 144° Southeast 463 533 31,000  Level Denver Center
10:06AM 41.3108 -106.0169 144° Southeast 467 537 31,000  Level Denver Center
10:07AM 41.1931 -105.9039 144° Southeast 469 540 31,000  Level Denver Center
10:08AM 41.0925 -105.8083 144° Southeast 466 536 31,000  Level Denver Center
10:09AM 40.9819 -105.7019 144° Southeast 469 540 31,000 -840 Level Denver Center
10:10AM 40.8742 -105.6011 145° Southeast 470 541 29,400 -2,220 Descending Denver Center
10:11AM 40.7700 -105.5011 144° Southeast 460 529 26,500 -2,880 Descending Denver Center
10:12AM 40.6722 -105.4078 144° Southeast 434 499 23,600 -2,880 Descending Denver Center
10:13AM 40.5750 -105.3186 145° Southeast 424 488 20,700 -2,400 Descending Denver Center
10:14AM 40.4922 -105.2306 141° Southeast 376 433 18,700 -1,920 Descending Denver Center
10:16AM 40.4539 -105.1000 111° Southeast 357 411 16,800 -1,620 Descending Denver Center
10:17AM 40.4200 -104.9814 111° Southeast 327 376 15,500 -1,200 Descending Denver Center
10:18AM 40.3925 -104.8850 111° Southeast 290 334 14,400 -1,140 Descending Denver Center
10:19AM 40.3331 -104.8231 142° Southeast 273 314 13,200 -1,140 Descending Denver Center
10:20AM 40.2675 -104.7706 149° Southeast 276 318 12,100 -1,260 Descending Denver Center
10:21AM 40.1953 -104.7117 148° Southeast 283 326 10,600 -1,080 Descending Denver Center
10:22AM 40.1442 -104.6844 158° South 267 307 9,900 -1,020 Descending Denver Center
10:23AM 40.0681 -104.6847 180° South 225 259 8,600 -1,260 Descending Denver Center